createdAt,value
2023-09-12T14:19:48.742Z,21.90
2023-09-12T14:22:16.885Z,22.00
2023-09-12T14:24:44.421Z,22.10
2023-09-12T14:27:20.451Z,22.10
2023-09-12T14:29:53.491Z,22.20
2023-09-12T14:32:21.398Z,22.30
2023-09-12T14:34:48.541Z,22.30
2023-09-12T14:37:15.630Z,22.30
2023-09-12T14:39:42.796Z,22.20
2023-09-12T14:42:10.278Z,22.20
2023-09-12T14:44:38.491Z,22.10
2023-09-12T14:47:05.846Z,22.10
2023-09-12T14:49:39.321Z,22.20
2023-09-12T14:52:21.674Z,22.10
2023-09-12T14:54:52.350Z,22.20
2023-09-12T14:57:20.460Z,22.10
2023-09-12T14:59:47.744Z,22.20
2023-09-12T15:02:14.981Z,22.10
2023-09-12T15:04:42.191Z,22.20
2023-09-12T15:07:09.328Z,22.10
2023-09-12T15:09:36.716Z,22.20
2023-09-12T15:12:04.009Z,22.10
2023-09-12T15:14:31.622Z,22.10
2023-09-12T15:17:01.051Z,22.20
2023-09-12T15:19:28.325Z,22.20
2023-09-12T15:21:55.506Z,22.20
2023-09-12T15:24:23.625Z,22.30
2023-09-12T15:26:50.774Z,22.40
2023-09-12T15:29:18.182Z,22.50
2023-09-12T15:31:45.977Z,22.50
2023-09-12T15:34:13.148Z,22.60
2023-09-12T15:36:48.108Z,22.70
2023-09-12T15:39:15.995Z,22.60
2023-09-12T15:41:43.117Z,22.60
2023-09-12T15:44:16.060Z,22.70
2023-09-12T15:46:43.851Z,22.70
2023-09-12T15:49:11.133Z,22.60
2023-09-12T15:51:38.506Z,22.70
2023-09-12T15:54:05.778Z,22.70
2023-09-12T15:56:32.919Z,22.70
2023-09-12T15:58:59.997Z,22.60
2023-09-12T16:01:27.453Z,22.70
2023-09-12T16:03:55.488Z,22.60
2023-09-12T16:06:22.938Z,22.60
2023-09-12T16:08:50.126Z,22.60
2023-09-12T16:11:17.260Z,22.60
2023-09-12T16:13:44.617Z,22.60
2023-09-12T16:16:11.999Z,22.60
2023-09-12T16:18:39.225Z,22.60
2023-09-12T16:21:06.401Z,22.60
2023-09-12T16:23:33.483Z,22.60
2023-09-12T16:26:01.403Z,22.60
2023-09-12T16:28:28.992Z,22.60
2023-09-12T16:30:56.809Z,22.50
2023-09-12T16:33:24.277Z,22.50
2023-09-12T16:35:51.794Z,22.50
2023-09-12T16:38:18.893Z,22.60
2023-09-12T16:40:47.733Z,22.50
2023-09-12T16:43:14.820Z,22.50
2023-09-12T16:45:41.958Z,22.50
2023-09-12T16:48:09.075Z,22.50
2023-09-12T16:50:36.188Z,22.50
2023-09-12T16:53:05.273Z,22.50
2023-09-12T16:55:32.504Z,22.50
2023-09-12T16:58:00.096Z,22.50
2023-09-12T17:00:27.318Z,22.40
2023-09-12T17:02:54.582Z,22.50
2023-09-12T17:05:24.354Z,22.60
2023-09-12T17:07:51.518Z,22.50
2023-09-12T17:10:18.834Z,22.50
2023-09-12T17:12:45.999Z,22.60
2023-09-12T17:15:13.180Z,22.60
2023-09-12T17:17:40.315Z,22.60
2023-09-12T17:20:07.805Z,22.60
2023-09-12T17:22:34.909Z,22.60
2023-09-12T17:25:02.130Z,22.60
2023-09-12T17:27:30.225Z,22.60
2023-09-12T17:29:57.516Z,22.60
2023-09-12T17:32:25.086Z,22.60
2023-09-12T17:34:52.978Z,22.60
2023-09-12T17:37:20.239Z,22.60
2023-09-12T17:39:47.388Z,22.60
2023-09-12T17:42:14.550Z,22.60
2023-09-12T17:44:41.647Z,22.50
2023-09-12T17:47:09.228Z,22.50
2023-09-12T17:49:36.459Z,22.50
2023-09-12T17:52:03.653Z,22.60
2023-09-12T17:54:33.017Z,22.50
2023-09-12T17:57:00.247Z,22.50
2023-09-12T17:59:27.973Z,22.50
2023-09-12T18:01:55.705Z,22.50
2023-09-12T18:04:23.027Z,22.50
2023-09-12T18:06:50.288Z,22.40
2023-09-12T18:09:17.477Z,22.40
2023-09-12T18:11:44.674Z,22.40
2023-09-12T18:14:11.797Z,22.40
2023-09-12T18:16:39.045Z,22.40
2023-09-12T18:19:06.352Z,22.70
2023-09-12T18:21:33.807Z,22.70
2023-09-12T18:24:01.058Z,22.50
2023-09-12T18:26:28.169Z,22.50
2023-09-12T18:28:57.535Z,22.50
2023-09-12T18:31:24.691Z,22.50
2023-09-12T18:33:52.005Z,22.50
2023-09-12T18:36:19.649Z,22.50
2023-09-12T18:38:46.844Z,22.50
2023-09-12T18:41:14.873Z,22.50
2023-09-12T18:43:42.374Z,22.50
2023-09-12T18:46:10.008Z,22.50
2023-09-12T18:48:38.862Z,22.40
2023-09-12T18:51:06.285Z,22.40
2023-09-12T18:53:33.491Z,22.40
2023-09-12T18:56:00.895Z,22.50
2023-09-12T18:58:28.102Z,22.50
2023-09-12T19:00:58.264Z,22.50
2023-09-12T19:03:26.900Z,22.50
2023-09-12T19:05:54.437Z,22.50
2023-09-12T19:08:21.555Z,22.50
2023-09-12T19:10:48.853Z,22.50
2023-09-12T19:13:16.001Z,22.40
2023-09-12T19:15:45.034Z,22.50
2023-09-12T19:18:12.989Z,22.50
2023-09-12T19:20:41.221Z,22.60
2023-09-12T19:23:08.410Z,22.50
2023-09-12T19:25:35.662Z,22.50
2023-09-12T19:28:04.088Z,22.50
2023-09-12T19:30:34.919Z,22.50
2023-09-12T19:33:05.353Z,22.40
2023-09-12T19:35:33.692Z,22.50
2023-09-12T19:38:02.842Z,22.50
2023-09-12T19:40:30.151Z,22.40
2023-09-12T19:42:57.302Z,22.50
2023-09-12T19:45:24.552Z,22.40
2023-09-12T19:48:00.731Z,22.40
2023-09-12T19:50:32.332Z,22.40
2023-09-12T19:52:59.580Z,22.40
2023-09-12T19:55:26.935Z,22.10
2023-09-12T19:57:54.194Z,22.40
2023-09-12T20:00:21.377Z,22.40
2023-09-12T20:02:50.122Z,22.40
2023-09-12T20:05:22.615Z,22.40
2023-09-12T20:07:51.097Z,22.50
2023-09-12T20:10:22.976Z,22.40
2023-09-12T20:12:51.624Z,22.40
2023-09-12T20:15:20.477Z,22.50
2023-09-12T20:17:52.198Z,22.40
2023-09-12T20:20:23.009Z,22.50
2023-09-12T20:22:50.897Z,22.50
2023-09-12T20:25:20.086Z,22.40
2023-09-12T20:27:47.204Z,22.40
2023-09-12T20:30:15.638Z,22.40
2023-09-12T20:32:57.744Z,22.40
2023-09-12T20:35:31.726Z,22.40
2023-09-12T20:38:00.414Z,22.40
2023-09-12T20:40:29.551Z,22.50
2023-09-12T20:42:57.068Z,22.50
2023-09-12T20:45:24.585Z,22.50
2023-09-12T20:47:52.721Z,22.40
2023-09-12T20:50:27.127Z,22.50
2023-09-12T20:52:58.709Z,22.40
2023-09-12T20:55:30.238Z,22.40
2023-09-12T20:58:00.814Z,22.40
2023-09-12T21:00:28.679Z,22.40
2023-09-12T21:02:55.955Z,22.50
2023-09-12T21:05:24.629Z,22.50
2023-09-12T21:07:52.014Z,22.40
2023-09-12T21:10:19.195Z,22.40
2023-09-12T21:12:46.352Z,22.50
2023-09-12T21:15:13.444Z,22.50
2023-09-12T21:17:40.595Z,22.30
2023-09-12T21:20:08.376Z,22.40
2023-09-12T21:22:35.870Z,22.40
2023-09-12T21:25:04.228Z,22.40
2023-09-12T21:27:31.477Z,22.40
2023-09-12T21:29:58.634Z,22.40
2023-09-12T21:32:26.022Z,22.40
2023-09-12T21:35:19.529Z,22.40
2023-09-12T21:37:47.564Z,22.40
2023-09-12T21:40:15.859Z,22.40
2023-09-12T21:42:43.382Z,22.50
2023-09-12T21:45:16.136Z,22.40
2023-09-12T21:47:45.572Z,22.40
2023-09-12T21:50:13.732Z,22.30
2023-09-12T21:52:41.474Z,22.20
2023-09-12T21:55:09.251Z,22.10
2023-09-12T21:57:36.939Z,22.10
2023-09-12T22:00:22.035Z,22.10
2023-09-12T22:02:51.291Z,22.20
2023-09-12T22:05:18.878Z,22.30
2023-09-12T22:07:46.051Z,22.40
2023-09-12T22:10:14.059Z,22.30
2023-09-12T22:12:41.627Z,22.40
2023-09-12T22:15:09.392Z,22.40
2023-09-12T22:17:36.657Z,22.40
2023-09-12T22:20:05.601Z,22.60
2023-09-12T22:22:33.396Z,22.40
2023-09-12T22:25:00.630Z,22.40
2023-09-12T22:27:27.866Z,22.40
2023-09-12T22:29:55.033Z,22.40
2023-09-12T22:32:22.202Z,22.40
2023-09-12T22:34:49.359Z,22.20
2023-09-12T22:37:16.438Z,22.40
2023-09-12T22:39:43.928Z,22.40
2023-09-12T22:42:11.087Z,22.40
2023-09-12T22:44:38.318Z,22.30
2023-09-12T22:47:05.492Z,22.30
2023-09-12T22:49:32.603Z,22.30
2023-09-12T22:51:59.730Z,22.30
2023-09-12T22:54:26.960Z,22.30
2023-09-12T22:56:54.058Z,22.20
2023-09-12T22:59:21.202Z,22.20
2023-09-12T23:01:48.418Z,22.20
2023-09-12T23:04:15.783Z,22.20
2023-09-12T23:06:43.010Z,22.20
2023-09-12T23:09:10.120Z,22.20
2023-09-12T23:11:37.235Z,22.20
2023-09-12T23:14:04.355Z,22.20
2023-09-12T23:16:31.560Z,22.20
2023-09-12T23:18:59.030Z,22.20
2023-09-12T23:21:26.306Z,22.20
2023-09-12T23:23:53.392Z,22.10
2023-09-12T23:26:20.699Z,22.10
2023-09-12T23:28:47.788Z,22.20
2023-09-12T23:31:14.991Z,22.10
2023-09-12T23:33:42.287Z,22.10
2023-09-12T23:36:10.563Z,22.20
2023-09-12T23:38:37.931Z,22.20
2023-09-12T23:41:05.024Z,22.30
2023-09-12T23:43:33.392Z,22.30
2023-09-12T23:46:00.833Z,22.40
2023-09-12T23:48:28.033Z,22.40
2023-09-12T23:50:55.363Z,22.40
2023-09-12T23:53:22.660Z,22.30
2023-09-12T23:55:50.760Z,22.30
2023-09-12T23:58:18.106Z,22.40
